sensor_id;sensor_type;location;lat;lon;timestamp;pressure;altitude;pressure_sealevel;temperature;humidity
62926;BME280;55732;52.248;-0.844;2023-02-18T00:02:07;101227.11;;;11.23;88.02
62926;BME280;55732;52.248;-0.844;2023-02-18T00:04:33;101221.13;;;11.24;88.06
62926;BME280;55732;52.248;-0.844;2023-02-18T00:06:58;101211.80;;;11.25;88.07
62926;BME280;55732;52.248;-0.844;2023-02-18T00:09:24;101205.98;;;11.26;87.97
62926;BME280;55732;52.248;-0.844;2023-02-18T00:11:50;101207.04;;;11.26;88.14
62926;BME280;55732;52.248;-0.844;2023-02-18T00:14:16;101205.81;;;11.26;87.84
62926;BME280;55732;52.248;-0.844;2023-02-18T00:16:42;101202.29;;;11.28;87.83
62926;BME280;55732;52.248;-0.844;2023-02-18T00:19:17;101204.23;;;11.27;87.74
62926;BME280;55732;52.248;-0.844;2023-02-18T00:21:43;101200.00;;;11.27;87.73
62926;BME280;55732;52.248;-0.844;2023-02-18T00:24:12;101198.06;;;11.28;87.61
62926;BME280;55732;52.248;-0.844;2023-02-18T00:26:39;101199.13;;;11.28;87.56
62926;BME280;55732;52.248;-0.844;2023-02-18T00:29:05;101198.95;;;11.28;87.46
62926;BME280;55732;52.248;-0.844;2023-02-18T00:31:34;101195.42;;;11.28;87.40
62926;BME280;55732;52.248;-0.844;2023-02-18T00:34:00;101188.55;;;11.28;87.34
62926;BME280;55732;52.248;-0.844;2023-02-18T00:36:26;101192.95;;;11.28;87.37
62926;BME280;55732;52.248;-0.844;2023-02-18T00:38:54;101189.44;;;11.29;87.17
62926;BME280;55732;52.248;-0.844;2023-02-18T00:41:21;101186.63;;;11.29;87.09
62926;BME280;55732;52.248;-0.844;2023-02-18T00:43:47;101189.27;;;11.29;87.01
62926;BME280;55732;52.248;-0.844;2023-02-18T00:46:13;101188.02;;;11.28;86.93
62926;BME280;55732;52.248;-0.844;2023-02-18T00:48:39;101189.44;;;11.28;86.84
62926;BME280;55732;52.248;-0.844;2023-02-18T00:51:06;101196.30;;;11.28;86.84
62926;BME280;55732;52.248;-0.844;2023-02-18T00:53:31;101185.73;;;11.28;86.86
62926;BME280;55732;52.248;-0.844;2023-02-18T00:55:57;101182.38;;;11.28;86.76
62926;BME280;55732;52.248;-0.844;2023-02-18T00:58:23;101177.25;;;11.27;86.66
62926;BME280;55732;52.248;-0.844;2023-02-18T01:00:49;101181.48;;;11.27;86.56
62926;BME280;55732;52.248;-0.844;2023-02-18T01:03:16;101179.36;;;11.26;86.59
62926;BME280;55732;52.248;-0.844;2023-02-18T01:05:42;101178.11;;;11.25;86.62
62926;BME280;55732;52.248;-0.844;2023-02-18T01:08:11;101177.77;;;11.23;86.58
62926;BME280;55732;52.248;-0.844;2023-02-18T01:10:40;101175.45;;;11.23;86.63
62926;BME280;55732;52.248;-0.844;2023-02-18T01:13:07;101175.29;;;11.23;86.63
62926;BME280;55732;52.248;-0.844;2023-02-18T01:15:32;101168.41;;;11.23;86.44
62926;BME280;55732;52.248;-0.844;2023-02-18T01:17:58;101166.13;;;11.23;86.27
62926;BME280;55732;52.248;-0.844;2023-02-18T01:20:23;101159.42;;;11.24;86.36
62926;BME280;55732;52.248;-0.844;2023-02-18T01:22:51;101169.30;;;11.25;86.32
62926;BME280;55732;52.248;-0.844;2023-02-18T01:25:17;101170.36;;;11.25;86.35
62926;BME280;55732;52.248;-0.844;2023-02-18T01:27:42;101157.85;;;11.25;86.17
62926;BME280;55732;52.248;-0.844;2023-02-18T01:30:11;101139.34;;;11.26;86.16
62926;BME280;55732;52.248;-0.844;2023-02-18T01:32:38;101120.09;;;11.15;86.04
62926;BME280;55732;52.248;-0.844;2023-02-18T01:35:05;101143.05;;;11.27;85.95
62926;BME280;55732;52.248;-0.844;2023-02-18T01:37:32;101141.29;;;11.26;86.03
62926;BME280;55732;52.248;-0.844;2023-02-18T01:39:59;101132.48;;;11.26;86.05
62926;BME280;55732;52.248;-0.844;2023-02-18T01:42:27;101123.30;;;11.25;86.18
62926;BME280;55732;52.248;-0.844;2023-02-18T01:44:53;101117.66;;;11.25;86.19
62926;BME280;55732;52.248;-0.844;2023-02-18T01:47:20;101112.36;;;11.25;86.21
62926;BME280;55732;52.248;-0.844;2023-02-18T01:49:49;101110.24;;;11.24;86.25
62926;BME280;55732;52.248;-0.844;2023-02-18T01:52:25;101110.23;;;11.22;86.15
62926;BME280;55732;52.248;-0.844;2023-02-18T01:54:55;101112.70;;;11.20;86.14
62926;BME280;55732;52.248;-0.844;2023-02-18T01:57:30;101108.64;;;11.17;86.14
62926;BME280;55732;52.248;-0.844;2023-02-18T02:00:00;101114.43;;;11.14;86.08
62926;BME280;55732;52.248;-0.844;2023-02-18T02:02:29;101118.46;;;11.11;86.33
62926;BME280;55732;52.248;-0.844;2023-02-18T02:04:56;101111.23;;;11.09;86.34
62926;BME280;55732;52.248;-0.844;2023-02-18T02:07:23;101101.71;;;11.05;86.31
62926;BME280;55732;52.248;-0.844;2023-02-18T02:09:52;101103.63;;;11.02;86.17
62926;BME280;55732;52.248;-0.844;2023-02-18T02:18:24;101107.81;;;10.94;86.16
62926;BME280;55732;52.248;-0.844;2023-02-18T02:35:44;101109.49;;;10.55;86.39
62926;BME280;55732;52.248;-0.844;2023-02-18T02:40:54;101092.55;;;10.48;86.33
62926;BME280;55732;52.248;-0.844;2023-02-18T02:46:25;101087.23;;;10.43;86.21
62926;BME280;55732;52.248;-0.844;2023-02-18T02:51:47;101083.98;;;10.33;85.97
62926;BME280;55732;52.248;-0.844;2023-02-18T02:56:43;101087.27;;;10.26;85.88
62926;BME280;55732;52.248;-0.844;2023-02-18T02:59:12;101085.32;;;10.24;85.81
62926;BME280;55732;52.248;-0.844;2023-02-18T03:05:02;101073.98;;;10.17;85.81
62926;BME280;55732;52.248;-0.844;2023-02-18T03:21:12;101046.75;;;10.03;85.13
62926;BME280;55732;52.248;-0.844;2023-02-18T03:24:06;101041.65;;;10.02;85.03
62926;BME280;55732;52.248;-0.844;2023-02-18T03:26:35;101026.86;;;10.01;84.81
62926;BME280;55732;52.248;-0.844;2023-02-18T03:29:06;101015.94;;;10.00;84.79
62926;BME280;55732;52.248;-0.844;2023-02-18T03:31:34;101015.23;;;9.98;84.73
62926;BME280;55732;52.248;-0.844;2023-02-18T03:34:07;101005.18;;;9.97;84.68
62926;BME280;55732;52.248;-0.844;2023-02-18T03:36:34;100994.78;;;9.95;84.71
62926;BME280;55732;52.248;-0.844;2023-02-18T03:41:26;100984.02;;;9.92;84.35
62926;BME280;55732;52.248;-0.844;2023-02-18T03:43:52;100966.45;;;9.91;84.38
62926;BME280;55732;52.248;-0.844;2023-02-18T03:46:20;100965.73;;;9.88;84.18
62926;BME280;55732;52.248;-0.844;2023-02-18T03:48:46;100974.67;;;9.86;84.08
62926;BME280;55732;52.248;-0.844;2023-02-18T03:51:11;100980.44;;;9.83;84.07
62926;BME280;55732;52.248;-0.844;2023-02-18T03:53:37;100984.64;;;9.80;84.09
62926;BME280;55732;52.248;-0.844;2023-02-18T03:56:02;100978.64;;;9.76;84.14
62926;BME280;55732;52.248;-0.844;2023-02-18T03:58:28;100972.10;;;9.74;84.15
62926;BME280;55732;52.248;-0.844;2023-02-18T04:00:53;100972.26;;;9.71;83.97
62926;BME280;55732;52.248;-0.844;2023-02-18T04:03:19;100977.17;;;9.70;84.08
62926;BME280;55732;52.248;-0.844;2023-02-18T04:05:44;100983.49;;;9.70;83.99
62926;BME280;55732;52.248;-0.844;2023-02-18T04:08:09;100981.38;;;9.69;84.12
62926;BME280;55732;52.248;-0.844;2023-02-18T04:10:35;100973.12;;;9.69;84.01
62926;BME280;55732;52.248;-0.844;2023-02-18T04:13:00;100967.66;;;9.69;84.01
62926;BME280;55732;52.248;-0.844;2023-02-18T04:15:26;100965.56;;;9.69;83.85
62926;BME280;55732;52.248;-0.844;2023-02-18T04:17:51;100965.91;;;9.70;83.77
62926;BME280;55732;52.248;-0.844;2023-02-18T04:20:17;100961.69;;;9.70;83.71
62926;BME280;55732;52.248;-0.844;2023-02-18T04:22:43;100966.44;;;9.70;83.69
62926;BME280;55732;52.248;-0.844;2023-02-18T04:25:08;100963.80;;;9.69;83.42
62926;BME280;55732;52.248;-0.844;2023-02-18T04:27:34;100969.95;;;9.70;83.45
62926;BME280;55732;52.248;-0.844;2023-02-18T04:29:59;100974.19;;;9.70;83.31
62926;BME280;55732;52.248;-0.844;2023-02-18T04:32:24;100980.52;;;9.70;83.36
62926;BME280;55732;52.248;-0.844;2023-02-18T04:34:50;100977.70;;;9.71;83.25
62926;BME280;55732;52.248;-0.844;2023-02-18T04:37:15;100975.25;;;9.72;83.33
62926;BME280;55732;52.248;-0.844;2023-02-18T04:39:41;100980.56;;;9.75;83.35
62926;BME280;55732;52.248;-0.844;2023-02-18T04:42:06;100979.36;;;9.78;83.14
62926;BME280;55732;52.248;-0.844;2023-02-18T04:44:37;100980.08;;;9.81;83.07
62926;BME280;55732;52.248;-0.844;2023-02-18T04:47:04;100980.45;;;9.84;83.00
62926;BME280;55732;52.248;-0.844;2023-02-18T04:49:29;100980.48;;;9.87;83.02
62926;BME280;55732;52.248;-0.844;2023-02-18T04:51:55;100980.52;;;9.90;82.93
62926;BME280;55732;52.248;-0.844;2023-02-18T04:54:20;100974.70;;;9.92;82.84
62926;BME280;55732;52.248;-0.844;2023-02-18T04:56:46;100975.79;;;9.95;82.81
62926;BME280;55732;52.248;-0.844;2023-02-18T04:59:11;100978.98;;;9.98;82.76
62926;BME280;55732;52.248;-0.844;2023-02-18T05:01:36;100975.14;;;10.01;82.61
62926;BME280;55732;52.248;-0.844;2023-02-18T05:04:02;100973.21;;;10.03;82.69
62926;BME280;55732;52.248;-0.844;2023-02-18T05:06:27;100963.55;;;10.06;82.66
62926;BME280;55732;52.248;-0.844;2023-02-18T05:08:53;100962.16;;;10.08;82.55
62926;BME280;55732;52.248;-0.844;2023-02-18T05:11:18;100961.48;;;10.10;82.53
62926;BME280;55732;52.248;-0.844;2023-02-18T05:13:43;100959.92;;;10.13;82.63
62926;BME280;55732;52.248;-0.844;2023-02-18T05:16:09;100962.39;;;10.17;82.75
62926;BME280;55732;52.248;-0.844;2023-02-18T05:18:34;100966.33;;;10.21;82.71
62926;BME280;55732;52.248;-0.844;2023-02-18T05:21:00;100963.19;;;10.23;82.79
62926;BME280;55732;52.248;-0.844;2023-02-18T05:23:25;100957.57;;;10.26;82.72
62926;BME280;55732;52.248;-0.844;2023-02-18T05:25:51;100961.79;;;10.28;82.91
62926;BME280;55732;52.248;-0.844;2023-02-18T05:28:16;100955.30;;;10.31;82.93
62926;BME280;55732;52.248;-0.844;2023-02-18T05:30:42;100962.19;;;10.33;82.90
62926;BME280;55732;52.248;-0.844;2023-02-18T05:33:07;100965.36;;;10.35;82.99
62926;BME280;55732;52.248;-0.844;2023-02-18T05:35:33;100972.08;;;10.37;83.19
62926;BME280;55732;52.248;-0.844;2023-02-18T05:37:58;100969.79;;;10.41;83.14
62926;BME280;55732;52.248;-0.844;2023-02-18T05:40:23;100956.07;;;10.42;83.29
62926;BME280;55732;52.248;-0.844;2023-02-18T05:42:49;100946.22;;;10.44;83.35
62926;BME280;55732;52.248;-0.844;2023-02-18T05:45:15;100943.25;;;10.46;83.36
62926;BME280;55732;52.248;-0.844;2023-02-18T05:47:40;100945.19;;;10.47;83.51
62926;BME280;55732;52.248;-0.844;2023-02-18T05:50:06;100944.50;;;10.48;83.58
62926;BME280;55732;52.248;-0.844;2023-02-18T05:52:32;100941.86;;;10.49;83.58
62926;BME280;55732;52.248;-0.844;2023-02-18T05:54:57;100935.69;;;10.48;83.74
62926;BME280;55732;52.248;-0.844;2023-02-18T05:57:24;100927.77;;;10.48;83.79
62926;BME280;55732;52.248;-0.844;2023-02-18T05:59:49;100923.52;;;10.44;83.80
62926;BME280;55732;52.248;-0.844;2023-02-18T06:02:15;100932.17;;;10.47;84.06
62926;BME280;55732;52.248;-0.844;2023-02-18T06:04:40;100933.75;;;10.46;84.14
62926;BME280;55732;52.248;-0.844;2023-02-18T06:07:06;100929.17;;;10.47;84.25
62926;BME280;55732;52.248;-0.844;2023-02-18T06:09:31;100925.66;;;10.48;84.23
62926;BME280;55732;52.248;-0.844;2023-02-18T06:11:57;100927.06;;;10.48;84.50
62926;BME280;55732;52.248;-0.844;2023-02-18T06:14:23;100926.89;;;10.49;84.54
62926;BME280;55732;52.248;-0.844;2023-02-18T06:16:48;100925.66;;;10.49;84.64
62926;BME280;55732;52.248;-0.844;2023-02-18T06:19:14;100920.38;;;10.48;84.79
62926;BME280;55732;52.248;-0.844;2023-02-18T06:21:39;100918.10;;;10.49;84.81
62926;BME280;55732;52.248;-0.844;2023-02-18T06:24:05;100921.09;;;10.48;84.76
62926;BME280;55732;52.248;-0.844;2023-02-18T06:26:30;100917.20;;;10.47;84.99
62926;BME280;55732;52.248;-0.844;2023-02-18T06:28:56;100912.78;;;10.45;85.03
62926;BME280;55732;52.248;-0.844;2023-02-18T06:31:21;100918.93;;;10.44;85.24
62926;BME280;55732;52.248;-0.844;2023-02-18T06:33:47;100916.29;;;10.42;85.24
62926;BME280;55732;52.248;-0.844;2023-02-18T06:36:12;100925.77;;;10.41;85.26
62926;BME280;55732;52.248;-0.844;2023-02-18T06:38:40;100929.29;;;10.40;85.57
62926;BME280;55732;52.248;-0.844;2023-02-18T06:41:06;100935.81;;;10.39;85.49
62926;BME280;55732;52.248;-0.844;2023-02-18T06:43:41;100929.29;;;10.39;85.85
62926;BME280;55732;52.248;-0.844;2023-02-18T06:46:07;100926.84;;;10.41;85.84
62926;BME280;55732;52.248;-0.844;2023-02-18T06:48:32;100916.81;;;10.42;85.85
62926;BME280;55732;52.248;-0.844;2023-02-18T06:50:58;100915.23;;;10.43;85.91
62926;BME280;55732;52.248;-0.844;2023-02-18T06:53:24;100914.17;;;10.42;85.90
62926;BME280;55732;52.248;-0.844;2023-02-18T06:55:49;100913.98;;;10.40;86.01
62926;BME280;55732;52.248;-0.844;2023-02-18T06:58:15;100920.84;;;10.39;86.12
62926;BME280;55732;52.248;-0.844;2023-02-18T07:00:41;100922.77;;;10.39;86.15
62926;BME280;55732;52.248;-0.844;2023-02-18T07:03:07;100927.00;;;10.39;86.19
62926;BME280;55732;52.248;-0.844;2023-02-18T07:05:33;100925.06;;;10.40;86.23
62926;BME280;55732;52.248;-0.844;2023-02-18T07:07:58;100922.59;;;10.40;86.32
62926;BME280;55732;52.248;-0.844;2023-02-18T07:10:24;100927.35;;;10.39;86.24
62926;BME280;55732;52.248;-0.844;2023-02-18T07:12:49;100933.69;;;10.39;86.40
62926;BME280;55732;52.248;-0.844;2023-02-18T07:15:15;100934.74;;;10.40;86.47
62926;BME280;55732;52.248;-0.844;2023-02-18T07:17:41;100929.83;;;10.41;86.52
62926;BME280;55732;52.248;-0.844;2023-02-18T07:20:07;100939.69;;;10.42;86.51
62926;BME280;55732;52.248;-0.844;2023-02-18T07:22:33;100946.74;;;10.44;86.72
62926;BME280;55732;52.248;-0.844;2023-02-18T07:24:58;100947.84;;;10.47;86.66
62926;BME280;55732;52.248;-0.844;2023-02-18T07:27:23;100949.42;;;10.50;86.52
62926;BME280;55732;52.248;-0.844;2023-02-18T07:29:49;100947.14;;;10.54;86.50
62926;BME280;55732;52.248;-0.844;2023-02-18T07:32:16;100945.94;;;10.57;86.53
62926;BME280;55732;52.248;-0.844;2023-02-18T07:34:42;100949.48;;;10.60;86.40
62926;BME280;55732;52.248;-0.844;2023-02-18T07:37:07;100952.46;;;10.63;86.44
62926;BME280;55732;52.248;-0.844;2023-02-18T07:39:41;100952.66;;;10.65;86.51
62926;BME280;55732;52.248;-0.844;2023-02-18T07:42:08;100958.11;;;10.66;86.32
62926;BME280;55732;52.248;-0.844;2023-02-18T07:44:34;100965.70;;;10.68;86.32
62926;BME280;55732;52.248;-0.844;2023-02-18T07:47:00;100973.81;;;10.69;86.21
62926;BME280;55732;52.248;-0.844;2023-02-18T07:49:27;100971.89;;;10.70;86.29
62926;BME280;55732;52.248;-0.844;2023-02-18T07:51:52;100973.30;;;10.73;86.25
62926;BME280;55732;52.248;-0.844;2023-02-18T07:54:18;100967.31;;;10.75;86.20
62926;BME280;55732;52.248;-0.844;2023-02-18T07:56:44;100966.11;;;10.79;86.12
62926;BME280;55732;52.248;-0.844;2023-02-18T07:59:11;100959.09;;;10.83;86.11
62926;BME280;55732;52.248;-0.844;2023-02-18T08:01:36;100963.33;;;10.89;85.99
62926;BME280;55732;52.248;-0.844;2023-02-18T08:04:02;100965.81;;;10.96;85.89
62926;BME280;55732;52.248;-0.844;2023-02-18T08:06:32;100973.59;;;11.03;85.81
62926;BME280;55732;52.248;-0.844;2023-02-18T08:08:58;100975.91;;;11.07;85.71
62926;BME280;55732;52.248;-0.844;2023-02-18T08:11:24;100980.84;;;11.13;85.55
62926;BME280;55732;52.248;-0.844;2023-02-18T08:13:49;100984.39;;;11.17;85.41
62926;BME280;55732;52.248;-0.844;2023-02-18T08:16:16;100987.75;;;11.20;85.27
62926;BME280;55732;52.248;-0.844;2023-02-18T08:18:43;100987.03;;;11.21;85.29
62926;BME280;55732;52.248;-0.844;2023-02-18T08:21:08;100988.27;;;11.24;85.22
62926;BME280;55732;52.248;-0.844;2023-02-18T08:23:34;100990.20;;;11.25;85.09
62926;BME280;55732;52.248;-0.844;2023-02-18T08:26:00;100992.87;;;11.28;85.05
62926;BME280;55732;52.248;-0.844;2023-02-18T08:28:25;100994.27;;;11.26;85.00
62926;BME280;55732;52.248;-0.844;2023-02-18T08:30:52;101006.80;;;11.29;85.14
62926;BME280;55732;52.248;-0.844;2023-02-18T08:33:18;100998.70;;;11.31;85.15
62926;BME280;55732;52.248;-0.844;2023-02-18T08:35:45;101002.58;;;11.35;85.08
62926;BME280;55732;52.248;-0.844;2023-02-18T08:38:11;101008.40;;;11.37;85.05
62926;BME280;55732;52.248;-0.844;2023-02-18T08:40:38;101005.07;;;11.41;85.03
62926;BME280;55732;52.248;-0.844;2023-02-18T08:43:05;101010.01;;;11.45;85.01
62926;BME280;55732;52.248;-0.844;2023-02-18T08:45:31;101010.90;;;11.50;84.97
62926;BME280;55732;52.248;-0.844;2023-02-18T08:47:56;101008.27;;;11.59;84.77
62926;BME280;55732;52.248;-0.844;2023-02-18T08:50:22;101012.86;;;11.65;84.72
62926;BME280;55732;52.248;-0.844;2023-02-18T08:52:51;101014.80;;;11.69;84.72
62926;BME280;55732;52.248;-0.844;2023-02-18T08:55:17;101015.51;;;11.72;84.70
62926;BME280;55732;52.248;-0.844;2023-02-18T08:57:46;101008.48;;;11.77;84.53
62926;BME280;55732;52.248;-0.844;2023-02-18T09:00:14;101010.25;;;11.80;84.46
62926;BME280;55732;52.248;-0.844;2023-02-18T09:02:40;101006.91;;;11.85;84.05
62926;BME280;55732;52.248;-0.844;2023-02-18T09:05:05;101013.98;;;11.89;84.01
62926;BME280;55732;52.248;-0.844;2023-02-18T09:07:31;101012.73;;;11.96;83.92
62926;BME280;55732;52.248;-0.844;2023-02-18T09:09:56;101022.45;;;12.03;83.71
62926;BME280;55732;52.248;-0.844;2023-02-18T09:12:22;101031.44;;;12.06;83.76
62926;BME280;55732;52.248;-0.844;2023-02-18T09:14:47;101031.80;;;12.10;83.75
62926;BME280;55732;52.248;-0.844;2023-02-18T09:17:13;101038.34;;;12.15;83.60
62926;BME280;55732;52.248;-0.844;2023-02-18T09:19:38;101034.61;;;12.24;83.41
62926;BME280;55732;52.248;-0.844;2023-02-18T09:22:04;101030.89;;;12.40;83.00
62926;BME280;55732;52.248;-0.844;2023-02-18T09:24:30;101029.60;;;12.68;82.68
62926;BME280;55732;52.248;-0.844;2023-02-18T09:27:00;101024.54;;;12.97;82.25
62926;BME280;55732;52.248;-0.844;2023-02-18T09:29:26;101027.98;;;13.25;81.33
62926;BME280;55732;52.248;-0.844;2023-02-18T09:31:51;101030.39;;;13.37;80.78
62926;BME280;55732;52.248;-0.844;2023-02-18T09:34:16;101042.63;;;13.32;80.63
62926;BME280;55732;52.248;-0.844;2023-02-18T09:36:42;101058.75;;;13.28;80.65
62926;BME280;55732;52.248;-0.844;2023-02-18T09:39:07;101058.21;;;13.29;80.65
62926;BME280;55732;52.248;-0.844;2023-02-18T09:41:50;101058.21;;;13.28;80.43
62926;BME280;55732;52.248;-0.844;2023-02-18T09:44:48;101063.73;;;13.21;80.32
62926;BME280;55732;52.248;-0.844;2023-02-18T09:47:27;101065.69;;;13.17;80.42
62926;BME280;55732;52.248;-0.844;2023-02-18T09:49:59;101072.23;;;13.15;80.28
62926;BME280;55732;52.248;-0.844;2023-02-18T09:52:31;101070.11;;;13.15;80.51
62926;BME280;55732;52.248;-0.844;2023-02-18T09:54:57;101072.05;;;13.17;80.68
62926;BME280;55732;52.248;-0.844;2023-02-18T09:57:43;101080.19;;;13.18;80.36
62926;BME280;55732;52.248;-0.844;2023-02-18T10:00:14;101088.29;;;13.24;80.30
62926;BME280;55732;52.248;-0.844;2023-02-18T10:02:42;101086.16;;;13.29;80.22
62926;BME280;55732;52.248;-0.844;2023-02-18T10:05:14;101081.33;;;13.40;80.05
62926;BME280;55732;52.248;-0.844;2023-02-18T10:07:40;101077.55;;;13.52;79.63
62926;BME280;55732;52.248;-0.844;2023-02-18T10:12:54;101082.64;;;13.88;78.68
62926;BME280;55732;52.248;-0.844;2023-02-18T10:15:22;101086.10;;;13.98;78.39
62926;BME280;55732;52.248;-0.844;2023-02-18T10:17:50;101088.06;;;13.97;78.64
62926;BME280;55732;52.248;-0.844;2023-02-18T10:20:21;101094.98;;;13.95;78.51
62926;BME280;55732;52.248;-0.844;2023-02-18T10:22:49;101103.31;;;13.93;78.69
62926;BME280;55732;52.248;-0.844;2023-02-18T10:25:20;101110.44;;;13.90;78.64
62926;BME280;55732;52.248;-0.844;2023-02-18T10:27:48;101114.34;;;13.84;78.96
62926;BME280;55732;52.248;-0.844;2023-02-18T10:30:22;101116.31;;;13.81;79.09
62926;BME280;55732;52.248;-0.844;2023-02-18T10:32:52;101117.00;;;13.85;79.18
62926;BME280;55732;52.248;-0.844;2023-02-18T10:35:35;101117.34;;;13.87;79.04
62926;BME280;55732;52.248;-0.844;2023-02-18T10:40:56;101116.23;;;13.92;79.20
62926;BME280;55732;52.248;-0.844;2023-02-18T10:43:41;101116.02;;;13.99;79.04
62926;BME280;55732;52.248;-0.844;2023-02-18T10:46:20;101117.71;;;14.09;78.92
62926;BME280;55732;52.248;-0.844;2023-02-18T10:49:29;101116.77;;;14.17;78.73
62926;BME280;55732;52.248;-0.844;2023-02-18T10:51:57;101117.79;;;14.26;78.48
62926;BME280;55732;52.248;-0.844;2023-02-18T10:54:24;101113.48;;;14.28;78.28
62926;BME280;55732;52.248;-0.844;2023-02-18T10:56:52;101113.30;;;14.30;77.98
62926;BME280;55732;52.248;-0.844;2023-02-18T10:59:25;101115.05;;;14.35;77.77
62926;BME280;55732;52.248;-0.844;2023-02-18T11:02:14;101111.95;;;14.49;77.60
62926;BME280;55732;52.248;-0.844;2023-02-18T11:04:43;101113.05;;;14.63;77.22
62926;BME280;55732;52.248;-0.844;2023-02-18T11:07:15;101112.52;;;14.81;76.75
62926;BME280;55732;52.248;-0.844;2023-02-18T11:09:51;101109.89;;;15.12;76.42
62926;BME280;55732;52.248;-0.844;2023-02-18T11:17:33;101110.86;;;15.77;74.56
62926;BME280;55732;52.248;-0.844;2023-02-18T11:22:43;101106.96;;;15.89;74.16
62926;BME280;55732;52.248;-0.844;2023-02-18T11:25:20;101102.13;;;16.03;73.93
62926;BME280;55732;52.248;-0.844;2023-02-18T11:27:58;101104.26;;;16.14;73.62
62926;BME280;55732;52.248;-0.844;2023-02-18T11:30:36;101107.02;;;16.18;73.57
62926;BME280;55732;52.248;-0.844;2023-02-18T11:33:15;101114.02;;;16.15;73.51
62926;BME280;55732;52.248;-0.844;2023-02-18T11:35:54;101115.02;;;16.07;73.46
62926;BME280;55732;52.248;-0.844;2023-02-18T11:38:57;101125.11;;;16.10;73.21
62926;BME280;55732;52.248;-0.844;2023-02-18T11:43:54;101125.81;;;15.74;73.00
62926;BME280;55732;52.248;-0.844;2023-02-18T11:46:23;101126.91;;;15.59;73.28
62926;BME280;55732;52.248;-0.844;2023-02-18T11:48:51;101126.10;;;15.50;73.61
62926;BME280;55732;52.248;-0.844;2023-02-18T11:51:29;101125.33;;;15.42;73.85
62926;BME280;55732;52.248;-0.844;2023-02-18T11:54:03;101125.11;;;15.30;73.95
62926;BME280;55732;52.248;-0.844;2023-02-18T11:56:34;101129.12;;;15.21;74.28
62926;BME280;55732;52.248;-0.844;2023-02-18T11:59:01;101129.56;;;15.12;74.55
62926;BME280;55732;52.248;-0.844;2023-02-18T12:01:44;101128.05;;;15.06;74.83
62926;BME280;55732;52.248;-0.844;2023-02-18T12:04:47;101129.89;;;15.00;75.31
62926;BME280;55732;52.248;-0.844;2023-02-18T12:07:21;101127.02;;;14.87;76.39
62926;BME280;55732;52.248;-0.844;2023-02-18T12:09:49;101130.32;;;14.74;77.10
62926;BME280;55732;52.248;-0.844;2023-02-18T12:12:23;101129.23;;;14.59;77.83
62926;BME280;55732;52.248;-0.844;2023-02-18T12:14:54;101125.46;;;14.42;78.49
62926;BME280;55732;52.248;-0.844;2023-02-18T12:17:36;101128.21;;;14.28;79.04
62926;BME280;55732;52.248;-0.844;2023-02-18T12:28:27;101127.27;;;13.83;81.28
62926;BME280;55732;52.248;-0.844;2023-02-18T12:31:18;101121.13;;;13.75;81.78
62926;BME280;55732;52.248;-0.844;2023-02-18T12:34:05;101119.55;;;13.71;82.32
62926;BME280;55732;52.248;-0.844;2023-02-18T12:40:36;101112.12;;;13.69;83.01
62926;BME280;55732;52.248;-0.844;2023-02-18T12:43:12;101106.61;;;13.76;83.28
62926;BME280;55732;52.248;-0.844;2023-02-18T12:51:25;101107.61;;;13.84;84.00
62926;BME280;55732;52.248;-0.844;2023-02-18T13:04:46;101099.13;;;14.31;83.85
62926;BME280;55732;52.248;-0.844;2023-02-18T13:10:13;101090.40;;;14.39;83.17
62926;BME280;55732;52.248;-0.844;2023-02-18T13:12:50;101095.40;;;14.33;82.68
62926;BME280;55732;52.248;-0.844;2023-02-18T13:15:24;101093.08;;;14.37;82.65
62926;BME280;55732;52.248;-0.844;2023-02-18T13:17:57;101093.16;;;14.48;83.01
62926;BME280;55732;52.248;-0.844;2023-02-18T13:20:34;101088.11;;;14.61;82.64
62926;BME280;55732;52.248;-0.844;2023-02-18T13:23:02;101083.79;;;14.66;82.70
62926;BME280;55732;52.248;-0.844;2023-02-18T13:25:33;101071.01;;;14.67;82.70
62926;BME280;55732;52.248;-0.844;2023-02-18T13:30:42;101067.27;;;14.70;82.68
62926;BME280;55732;52.248;-0.844;2023-02-18T13:36:12;101073.05;;;14.92;81.82
62926;BME280;55732;52.248;-0.844;2023-02-18T13:39:03;101070.72;;;15.10;81.62
62926;BME280;55732;52.248;-0.844;2023-02-18T13:41:43;101071.38;;;15.29;81.16
62926;BME280;55732;52.248;-0.844;2023-02-18T13:46:56;101061.65;;;15.53;80.82
62926;BME280;55732;52.248;-0.844;2023-02-18T13:49:24;101059.45;;;15.59;80.13
62926;BME280;55732;52.248;-0.844;2023-02-18T13:51:53;101046.19;;;15.55;78.89
62926;BME280;55732;52.248;-0.844;2023-02-18T13:56:52;101042.30;;;15.53;78.67
62926;BME280;55732;52.248;-0.844;2023-02-18T13:59:42;101035.77;;;15.49;78.33
62926;BME280;55732;52.248;-0.844;2023-02-18T14:09:58;101029.52;;;15.40;77.37
62926;BME280;55732;52.248;-0.844;2023-02-18T14:12:35;101028.52;;;15.35;77.29
62926;BME280;55732;52.248;-0.844;2023-02-18T14:17:47;101022.85;;;15.22;77.06
62926;BME280;55732;52.248;-0.844;2023-02-18T14:22:47;101019.36;;;15.16;76.31
62926;BME280;55732;52.248;-0.844;2023-02-18T14:27:39;101017.33;;;15.10;76.10
62926;BME280;55732;52.248;-0.844;2023-02-18T14:32:46;101013.96;;;14.96;76.11
62926;BME280;55732;52.248;-0.844;2023-02-18T14:40:36;101018.30;;;14.74;76.86
62926;BME280;55732;52.248;-0.844;2023-02-18T14:51:58;101004.69;;;14.34;77.22
62926;BME280;55732;52.248;-0.844;2023-02-18T14:54:25;100996.23;;;14.30;77.29
62926;BME280;55732;52.248;-0.844;2023-02-18T14:57:06;100997.00;;;14.24;77.21
62926;BME280;55732;52.248;-0.844;2023-02-18T14:59:36;100987.09;;;14.23;77.43
62926;BME280;55732;52.248;-0.844;2023-02-18T15:02:15;100986.02;;;14.22;77.40
62926;BME280;55732;52.248;-0.844;2023-02-18T15:04:42;100981.43;;;14.21;77.23
62926;BME280;55732;52.248;-0.844;2023-02-18T15:07:10;100976.14;;;14.19;77.42
62926;BME280;55732;52.248;-0.844;2023-02-18T15:09:51;100968.20;;;14.16;77.37
62926;BME280;55732;52.248;-0.844;2023-02-18T15:12:22;100965.58;;;14.14;77.38